sensor_id;sensor_type;location;lat;lon;timestamp;P1;durP1;ratioP1;P2;durP2;ratioP2
39956;SDS011;48483;44.640;7.494;2022-08-01T00:01:33;4.10;;;1.83;;
39956;SDS011;48483;44.640;7.494;2022-08-01T00:04:00;5.32;;;1.73;;
39956;SDS011;48483;44.640;7.494;2022-08-01T00:06:27;2.90;;;2.17;;
39956;SDS011;48483;44.640;7.494;2022-08-01T00:08:53;2.67;;;1.77;;
39956;SDS011;48483;44.640;7.494;2022-08-01T00:11:20;5.63;;;2.88;;
39956;SDS011;48483;44.640;7.494;2022-08-01T00:13:47;3.83;;;1.60;;
39956;SDS011;48483;44.640;7.494;2022-08-01T00:16:14;5.43;;;2.28;;
39956;SDS011;48483;44.640;7.494;2022-08-01T00:18:43;6.07;;;2.17;;
39956;SDS011;48483;44.640;7.494;2022-08-01T00:21:09;3.17;;;1.67;;
39956;SDS011;48483;44.640;7.494;2022-08-01T00:23:36;2.65;;;1.85;;
39956;SDS011;48483;44.640;7.494;2022-08-01T00:26:03;3.17;;;1.90;;
39956;SDS011;48483;44.640;7.494;2022-08-01T00:28:30;3.47;;;1.90;;
39956;SDS011;48483;44.640;7.494;2022-08-01T00:30:56;2.65;;;2.17;;
39956;SDS011;48483;44.640;7.494;2022-08-01T00:33:23;2.47;;;1.80;;
39956;SDS011;48483;44.640;7.494;2022-08-01T00:35:51;2.20;;;1.73;;
39956;SDS011;48483;44.640;7.494;2022-08-01T00:38:18;2.65;;;1.77;;
39956;SDS011;48483;44.640;7.494;2022-08-01T00:40:44;7.88;;;2.03;;
39956;SDS011;48483;44.640;7.494;2022-08-01T00:43:11;2.13;;;1.60;;
39956;SDS011;48483;44.640;7.494;2022-08-01T00:45:38;2.60;;;1.80;;
39956;SDS011;48483;44.640;7.494;2022-08-01T00:48:05;3.35;;;1.95;;
39956;SDS011;48483;44.640;7.494;2022-08-01T00:50:31;3.03;;;1.95;;
39956;SDS011;48483;44.640;7.494;2022-08-01T00:53:00;2.60;;;1.80;;
39956;SDS011;48483;44.640;7.494;2022-08-01T00:55:28;2.63;;;1.77;;
39956;SDS011;48483;44.640;7.494;2022-08-01T00:57:56;3.40;;;1.70;;
39956;SDS011;48483;44.640;7.494;2022-08-01T01:00:24;2.83;;;2.05;;
39956;SDS011;48483;44.640;7.494;2022-08-01T01:02:51;3.63;;;1.80;;
39956;SDS011;48483;44.640;7.494;2022-08-01T01:05:18;2.20;;;1.73;;
39956;SDS011;48483;44.640;7.494;2022-08-01T01:07:47;4.60;;;1.88;;
39956;SDS011;48483;44.640;7.494;2022-08-01T01:10:21;4.13;;;1.73;;
39956;SDS011;48483;44.640;7.494;2022-08-01T01:12:52;4.03;;;2.13;;
39956;SDS011;48483;44.640;7.494;2022-08-01T01:15:26;2.40;;;1.92;;
39956;SDS011;48483;44.640;7.494;2022-08-01T01:18:03;2.92;;;1.88;;
39956;SDS011;48483;44.640;7.494;2022-08-01T01:20:33;5.78;;;1.95;;
39956;SDS011;48483;44.640;7.494;2022-08-01T01:23:12;2.40;;;1.98;;
39956;SDS011;48483;44.640;7.494;2022-08-01T01:26:04;1.52;;;1.42;;
39956;SDS011;48483;44.640;7.494;2022-08-01T01:28:52;2.92;;;1.70;;
39956;SDS011;48483;44.640;7.494;2022-08-01T01:31:30;2.75;;;1.58;;
39956;SDS011;48483;44.640;7.494;2022-08-01T01:34:01;2.63;;;1.65;;
39956;SDS011;48483;44.640;7.494;2022-08-01T01:36:30;2.72;;;2.22;;
39956;SDS011;48483;44.640;7.494;2022-08-01T01:38:58;6.07;;;2.20;;
39956;SDS011;48483;44.640;7.494;2022-08-01T01:41:26;5.45;;;1.95;;
39956;SDS011;48483;44.640;7.494;2022-08-01T01:43:55;2.92;;;1.83;;
39956;SDS011;48483;44.640;7.494;2022-08-01T01:46:24;2.95;;;2.03;;
39956;SDS011;48483;44.640;7.494;2022-08-01T01:48:53;2.22;;;1.80;;
39956;SDS011;48483;44.640;7.494;2022-08-01T01:51:21;6.63;;;2.22;;
39956;SDS011;48483;44.640;7.494;2022-08-01T01:53:50;2.78;;;1.92;;
39956;SDS011;48483;44.640;7.494;2022-08-01T01:56:19;3.65;;;1.67;;
39956;SDS011;48483;44.640;7.494;2022-08-01T01:58:47;7.65;;;1.50;;
39956;SDS011;48483;44.640;7.494;2022-08-01T02:01:17;1.98;;;1.70;;
39956;SDS011;48483;44.640;7.494;2022-08-01T02:03:46;1.93;;;1.40;;
39956;SDS011;48483;44.640;7.494;2022-08-01T02:06:14;3.17;;;1.98;;
39956;SDS011;48483;44.640;7.494;2022-08-01T02:08:42;3.25;;;2.25;;
39956;SDS011;48483;44.640;7.494;2022-08-01T02:11:10;2.88;;;1.80;;
39956;SDS011;48483;44.640;7.494;2022-08-01T02:13:49;4.97;;;2.17;;
39956;SDS011;48483;44.640;7.494;2022-08-01T02:16:23;2.05;;;1.65;;
39956;SDS011;48483;44.640;7.494;2022-08-01T02:18:54;5.22;;;1.88;;
39956;SDS011;48483;44.640;7.494;2022-08-01T02:21:23;2.53;;;2.10;;
39956;SDS011;48483;44.640;7.494;2022-08-01T02:23:54;2.22;;;1.70;;
39956;SDS011;48483;44.640;7.494;2022-08-01T02:26:26;3.65;;;1.95;;
39956;SDS011;48483;44.640;7.494;2022-08-01T02:28:56;2.78;;;1.60;;
39956;SDS011;48483;44.640;7.494;2022-08-01T02:31:27;4.07;;;2.00;;
39956;SDS011;48483;44.640;7.494;2022-08-01T02:34:02;4.22;;;1.70;;
39956;SDS011;48483;44.640;7.494;2022-08-01T02:36:33;3.35;;;2.20;;
39956;SDS011;48483;44.640;7.494;2022-08-01T02:39:02;4.90;;;2.30;;
39956;SDS011;48483;44.640;7.494;2022-08-01T02:41:33;4.88;;;1.70;;
39956;SDS011;48483;44.640;7.494;2022-08-01T02:44:05;4.10;;;1.90;;
39956;SDS011;48483;44.640;7.494;2022-08-01T02:46:37;2.90;;;1.95;;
39956;SDS011;48483;44.640;7.494;2022-08-01T02:49:07;4.60;;;1.90;;
39956;SDS011;48483;44.640;7.494;2022-08-01T02:51:36;4.28;;;2.30;;
39956;SDS011;48483;44.640;7.494;2022-08-01T02:54:05;3.88;;;1.90;;
39956;SDS011;48483;44.640;7.494;2022-08-01T02:56:34;3.63;;;1.95;;
39956;SDS011;48483;44.640;7.494;2022-08-01T02:59:03;3.97;;;2.05;;
39956;SDS011;48483;44.640;7.494;2022-08-01T03:01:32;1.93;;;1.57;;
39956;SDS011;48483;44.640;7.494;2022-08-01T03:04:02;2.97;;;1.70;;
39956;SDS011;48483;44.640;7.494;2022-08-01T03:06:31;2.10;;;1.90;;
39956;SDS011;48483;44.640;7.494;2022-08-01T03:08:58;3.63;;;1.67;;
39956;SDS011;48483;44.640;7.494;2022-08-01T03:11:27;3.90;;;1.65;;
39956;SDS011;48483;44.640;7.494;2022-08-01T03:13:55;2.75;;;1.67;;
39956;SDS011;48483;44.640;7.494;2022-08-01T03:16:25;2.97;;;2.08;;
39956;SDS011;48483;44.640;7.494;2022-08-01T03:18:54;3.40;;;2.38;;
39956;SDS011;48483;44.640;7.494;2022-08-01T03:21:23;3.30;;;2.03;;
39956;SDS011;48483;44.640;7.494;2022-08-01T03:23:52;2.47;;;1.95;;
39956;SDS011;48483;44.640;7.494;2022-08-01T03:26:23;6.22;;;2.00;;
39956;SDS011;48483;44.640;7.494;2022-08-01T03:28:53;2.38;;;1.85;;
39956;SDS011;48483;44.640;7.494;2022-08-01T03:31:23;5.05;;;1.90;;
39956;SDS011;48483;44.640;7.494;2022-08-01T03:33:51;2.88;;;2.03;;
39956;SDS011;48483;44.640;7.494;2022-08-01T03:36:19;7.38;;;2.78;;
39956;SDS011;48483;44.640;7.494;2022-08-01T03:38:51;3.95;;;2.05;;
39956;SDS011;48483;44.640;7.494;2022-08-01T03:41:21;4.80;;;2.30;;
39956;SDS011;48483;44.640;7.494;2022-08-01T03:43:52;5.95;;;2.13;;
39956;SDS011;48483;44.640;7.494;2022-08-01T03:46:22;3.80;;;1.85;;
39956;SDS011;48483;44.640;7.494;2022-08-01T03:48:55;3.15;;;2.10;;
39956;SDS011;48483;44.640;7.494;2022-08-01T03:51:27;3.30;;;2.00;;
39956;SDS011;48483;44.640;7.494;2022-08-01T03:53:57;4.85;;;1.95;;
39956;SDS011;48483;44.640;7.494;2022-08-01T03:56:26;4.90;;;2.08;;
39956;SDS011;48483;44.640;7.494;2022-08-01T03:58:58;3.25;;;1.80;;
39956;SDS011;48483;44.640;7.494;2022-08-01T04:01:25;5.53;;;1.98;;
39956;SDS011;48483;44.640;7.494;2022-08-01T04:03:53;3.83;;;2.03;;
39956;SDS011;48483;44.640;7.494;2022-08-01T04:06:21;3.45;;;2.17;;
39956;SDS011;48483;44.640;7.494;2022-08-01T04:08:49;5.10;;;1.98;;
39956;SDS011;48483;44.640;7.494;2022-08-01T04:11:23;3.83;;;2.13;;
39956;SDS011;48483;44.640;7.494;2022-08-01T04:13:51;3.90;;;1.75;;
39956;SDS011;48483;44.640;7.494;2022-08-01T04:16:19;3.63;;;2.25;;
39956;SDS011;48483;44.640;7.494;2022-08-01T04:18:46;4.43;;;2.35;;
39956;SDS011;48483;44.640;7.494;2022-08-01T04:21:13;3.47;;;2.50;;
39956;SDS011;48483;44.640;7.494;2022-08-01T04:23:40;3.65;;;2.15;;
39956;SDS011;48483;44.640;7.494;2022-08-01T04:26:10;3.08;;;2.08;;
39956;SDS011;48483;44.640;7.494;2022-08-01T04:28:40;3.92;;;2.35;;
39956;SDS011;48483;44.640;7.494;2022-08-01T04:31:08;5.90;;;3.05;;
39956;SDS011;48483;44.640;7.494;2022-08-01T04:33:37;7.93;;;2.30;;
39956;SDS011;48483;44.640;7.494;2022-08-01T04:36:06;5.22;;;1.83;;
39956;SDS011;48483;44.640;7.494;2022-08-01T04:38:36;4.03;;;2.25;;
39956;SDS011;48483;44.640;7.494;2022-08-01T04:41:05;4.45;;;2.00;;
39956;SDS011;48483;44.640;7.494;2022-08-01T04:43:34;3.85;;;2.28;;
39956;SDS011;48483;44.640;7.494;2022-08-01T04:46:01;3.95;;;2.75;;
39956;SDS011;48483;44.640;7.494;2022-08-01T04:48:29;4.15;;;2.40;;
39956;SDS011;48483;44.640;7.494;2022-08-01T04:50:58;5.57;;;2.88;;
39956;SDS011;48483;44.640;7.494;2022-08-01T04:53:25;4.07;;;2.88;;
39956;SDS011;48483;44.640;7.494;2022-08-01T04:55:52;3.97;;;3.15;;
39956;SDS011;48483;44.640;7.494;2022-08-01T04:58:19;4.53;;;2.50;;
39956;SDS011;48483;44.640;7.494;2022-08-01T05:00:47;5.90;;;2.80;;
39956;SDS011;48483;44.640;7.494;2022-08-01T05:03:14;6.03;;;3.60;;
39956;SDS011;48483;44.640;7.494;2022-08-01T05:05:40;5.93;;;3.60;;
39956;SDS011;48483;44.640;7.494;2022-08-01T05:08:07;3.53;;;2.50;;
39956;SDS011;48483;44.640;7.494;2022-08-01T05:10:34;5.13;;;2.80;;
39956;SDS011;48483;44.640;7.494;2022-08-01T05:13:00;4.75;;;2.83;;
39956;SDS011;48483;44.640;7.494;2022-08-01T05:15:27;6.03;;;3.10;;
39956;SDS011;48483;44.640;7.494;2022-08-01T05:17:55;4.07;;;2.80;;
39956;SDS011;48483;44.640;7.494;2022-08-01T05:20:22;8.95;;;3.10;;
39956;SDS011;48483;44.640;7.494;2022-08-01T05:22:49;6.55;;;2.95;;
39956;SDS011;48483;44.640;7.494;2022-08-01T05:25:15;3.75;;;2.40;;
39956;SDS011;48483;44.640;7.494;2022-08-01T05:27:42;4.18;;;2.65;;
39956;SDS011;48483;44.640;7.494;2022-08-01T05:30:09;4.82;;;2.90;;
39956;SDS011;48483;44.640;7.494;2022-08-01T05:32:36;4.70;;;2.97;;
39956;SDS011;48483;44.640;7.494;2022-08-01T05:35:06;5.10;;;2.65;;
39956;SDS011;48483;44.640;7.494;2022-08-01T05:37:33;8.07;;;3.35;;
39956;SDS011;48483;44.640;7.494;2022-08-01T05:40:00;4.68;;;2.33;;
39956;SDS011;48483;44.640;7.494;2022-08-01T05:42:27;5.45;;;2.25;;
39956;SDS011;48483;44.640;7.494;2022-08-01T05:44:54;3.63;;;2.20;;
39956;SDS011;48483;44.640;7.494;2022-08-01T05:47:21;6.22;;;3.42;;
39956;SDS011;48483;44.640;7.494;2022-08-01T05:49:47;7.03;;;2.63;;
39956;SDS011;48483;44.640;7.494;2022-08-01T05:52:15;7.10;;;3.00;;
39956;SDS011;48483;44.640;7.494;2022-08-01T05:54:42;5.95;;;2.65;;
39956;SDS011;48483;44.640;7.494;2022-08-01T05:57:09;6.40;;;2.72;;
39956;SDS011;48483;44.640;7.494;2022-08-01T05:59:36;8.38;;;2.78;;
39956;SDS011;48483;44.640;7.494;2022-08-01T06:02:02;6.15;;;2.97;;
39956;SDS011;48483;44.640;7.494;2022-08-01T06:04:29;5.53;;;3.00;;
39956;SDS011;48483;44.640;7.494;2022-08-01T06:06:55;7.90;;;2.53;;
39956;SDS011;48483;44.640;7.494;2022-08-01T06:09:24;5.90;;;3.03;;
39956;SDS011;48483;44.640;7.494;2022-08-01T06:11:50;4.50;;;2.42;;
39956;SDS011;48483;44.640;7.494;2022-08-01T06:14:17;6.32;;;2.42;;
39956;SDS011;48483;44.640;7.494;2022-08-01T06:16:44;7.95;;;2.88;;
39956;SDS011;48483;44.640;7.494;2022-08-01T06:19:10;4.93;;;2.58;;
39956;SDS011;48483;44.640;7.494;2022-08-01T06:21:37;8.55;;;2.60;;
39956;SDS011;48483;44.640;7.494;2022-08-01T06:24:04;6.68;;;2.45;;
39956;SDS011;48483;44.640;7.494;2022-08-01T06:26:32;5.07;;;2.70;;
39956;SDS011;48483;44.640;7.494;2022-08-01T06:28:59;9.30;;;2.70;;
39956;SDS011;48483;44.640;7.494;2022-08-01T06:31:26;5.72;;;2.40;;
39956;SDS011;48483;44.640;7.494;2022-08-01T06:33:52;5.90;;;3.05;;
39956;SDS011;48483;44.640;7.494;2022-08-01T06:36:19;4.45;;;2.70;;
39956;SDS011;48483;44.640;7.494;2022-08-01T06:38:46;2.90;;;2.10;;
39956;SDS011;48483;44.640;7.494;2022-08-01T06:41:12;3.42;;;2.10;;
39956;SDS011;48483;44.640;7.494;2022-08-01T06:43:41;4.82;;;3.08;;
39956;SDS011;48483;44.640;7.494;2022-08-01T06:46:07;5.40;;;2.63;;
39956;SDS011;48483;44.640;7.494;2022-08-01T06:48:34;3.78;;;2.45;;
39956;SDS011;48483;44.640;7.494;2022-08-01T06:51:05;4.30;;;2.72;;
39956;SDS011;48483;44.640;7.494;2022-08-01T06:53:35;4.83;;;2.60;;
39956;SDS011;48483;44.640;7.494;2022-08-01T06:56:03;7.07;;;2.78;;
39956;SDS011;48483;44.640;7.494;2022-08-01T06:58:30;4.45;;;2.72;;
39956;SDS011;48483;44.640;7.494;2022-08-01T07:00:58;4.47;;;2.92;;
39956;SDS011;48483;44.640;7.494;2022-08-01T07:03:25;5.18;;;2.88;;
39956;SDS011;48483;44.640;7.494;2022-08-01T07:05:52;3.08;;;2.50;;
39956;SDS011;48483;44.640;7.494;2022-08-01T07:08:18;6.57;;;3.15;;
39956;SDS011;48483;44.640;7.494;2022-08-01T07:10:46;4.70;;;2.72;;
39956;SDS011;48483;44.640;7.494;2022-08-01T07:13:13;3.80;;;2.50;;
39956;SDS011;48483;44.640;7.494;2022-08-01T07:15:43;5.55;;;2.60;;
39956;SDS011;48483;44.640;7.494;2022-08-01T07:18:11;6.78;;;3.30;;
39956;SDS011;48483;44.640;7.494;2022-08-01T07:20:38;3.60;;;2.67;;
39956;SDS011;48483;44.640;7.494;2022-08-01T07:23:04;5.03;;;2.83;;
39956;SDS011;48483;44.640;7.494;2022-08-01T07:25:31;4.03;;;2.60;;
39956;SDS011;48483;44.640;7.494;2022-08-01T07:27:58;5.50;;;2.70;;
39956;SDS011;48483;44.640;7.494;2022-08-01T07:30:25;3.42;;;2.70;;
39956;SDS011;48483;44.640;7.494;2022-08-01T07:32:52;3.03;;;2.40;;
39956;SDS011;48483;44.640;7.494;2022-08-01T07:35:20;6.60;;;2.88;;
39956;SDS011;48483;44.640;7.494;2022-08-01T07:37:47;4.25;;;2.92;;
39956;SDS011;48483;44.640;7.494;2022-08-01T07:40:14;3.38;;;2.20;;
39956;SDS011;48483;44.640;7.494;2022-08-01T07:42:41;5.57;;;2.65;;
39956;SDS011;48483;44.640;7.494;2022-08-01T07:45:09;3.30;;;2.67;;
39956;SDS011;48483;44.640;7.494;2022-08-01T07:47:36;3.70;;;2.50;;
39956;SDS011;48483;44.640;7.494;2022-08-01T07:50:04;6.00;;;2.85;;
39956;SDS011;48483;44.640;7.494;2022-08-01T07:52:33;3.90;;;2.55;;
39956;SDS011;48483;44.640;7.494;2022-08-01T07:55:00;4.78;;;2.50;;
39956;SDS011;48483;44.640;7.494;2022-08-01T07:57:27;5.32;;;2.50;;
39956;SDS011;48483;44.640;7.494;2022-08-01T07:59:54;4.07;;;2.53;;
39956;SDS011;48483;44.640;7.494;2022-08-01T08:02:21;6.40;;;3.30;;
39956;SDS011;48483;44.640;7.494;2022-08-01T08:04:47;3.97;;;2.97;;
39956;SDS011;48483;44.640;7.494;2022-08-01T08:07:14;4.68;;;2.70;;
39956;SDS011;48483;44.640;7.494;2022-08-01T08:09:42;4.57;;;2.90;;
39956;SDS011;48483;44.640;7.494;2022-08-01T08:12:09;5.53;;;3.42;;
39956;SDS011;48483;44.640;7.494;2022-08-01T08:14:35;7.07;;;3.28;;
39956;SDS011;48483;44.640;7.494;2022-08-01T08:17:03;6.15;;;3.30;;
39956;SDS011;48483;44.640;7.494;2022-08-01T08:19:30;4.82;;;3.63;;
39956;SDS011;48483;44.640;7.494;2022-08-01T08:21:59;5.20;;;3.47;;
39956;SDS011;48483;44.640;7.494;2022-08-01T08:24:26;4.60;;;3.55;;
39956;SDS011;48483;44.640;7.494;2022-08-01T08:26:55;7.00;;;3.47;;
39956;SDS011;48483;44.640;7.494;2022-08-01T08:29:23;4.90;;;3.75;;
39956;SDS011;48483;44.640;7.494;2022-08-01T08:31:52;7.45;;;3.65;;
39956;SDS011;48483;44.640;7.494;2022-08-01T08:34:19;7.28;;;3.85;;
39956;SDS011;48483;44.640;7.494;2022-08-01T08:36:46;5.57;;;3.67;;
39956;SDS011;48483;44.640;7.494;2022-08-01T08:39:12;4.32;;;2.60;;
39956;SDS011;48483;44.640;7.494;2022-08-01T08:41:39;6.80;;;3.00;;
39956;SDS011;48483;44.640;7.494;2022-08-01T08:44:08;4.35;;;2.95;;
39956;SDS011;48483;44.640;7.494;2022-08-01T08:46:38;5.30;;;3.08;;
39956;SDS011;48483;44.640;7.494;2022-08-01T08:49:08;3.80;;;3.08;;
39956;SDS011;48483;44.640;7.494;2022-08-01T08:51:37;5.40;;;3.17;;
39956;SDS011;48483;44.640;7.494;2022-08-01T08:54:05;5.47;;;3.40;;
39956;SDS011;48483;44.640;7.494;2022-08-01T08:56:33;5.50;;;2.88;;
39956;SDS011;48483;44.640;7.494;2022-08-01T08:59:01;3.90;;;2.60;;
39956;SDS011;48483;44.640;7.494;2022-08-01T09:01:30;3.53;;;2.60;;
39956;SDS011;48483;44.640;7.494;2022-08-01T09:03:58;3.33;;;2.80;;
39956;SDS011;48483;44.640;7.494;2022-08-01T09:06:25;5.53;;;2.65;;
39956;SDS011;48483;44.640;7.494;2022-08-01T09:08:52;5.03;;;2.45;;
39956;SDS011;48483;44.640;7.494;2022-08-01T09:11:19;4.80;;;2.20;;
39956;SDS011;48483;44.640;7.494;2022-08-01T09:14:00;4.43;;;2.50;;
39956;SDS011;48483;44.640;7.494;2022-08-01T09:16:33;5.72;;;2.75;;
39956;SDS011;48483;44.640;7.494;2022-08-01T09:19:06;4.72;;;1.90;;
39956;SDS011;48483;44.640;7.494;2022-08-01T09:21:34;8.82;;;2.38;;
39956;SDS011;48483;44.640;7.494;2022-08-01T09:24:01;6.18;;;2.20;;
39956;SDS011;48483;44.640;7.494;2022-08-01T09:26:31;3.63;;;2.13;;
39956;SDS011;48483;44.640;7.494;2022-08-01T09:29:00;3.00;;;2.38;;
39956;SDS011;48483;44.640;7.494;2022-08-01T09:31:29;3.47;;;1.98;;
39956;SDS011;48483;44.640;7.494;2022-08-01T09:34:06;4.40;;;2.65;;
39956;SDS011;48483;44.640;7.494;2022-08-01T09:36:43;4.63;;;2.33;;
39956;SDS011;48483;44.640;7.494;2022-08-01T09:39:14;3.95;;;2.00;;
39956;SDS011;48483;44.640;7.494;2022-08-01T09:41:41;2.70;;;2.30;;
39956;SDS011;48483;44.640;7.494;2022-08-01T09:44:08;4.32;;;2.15;;
39956;SDS011;48483;44.640;7.494;2022-08-01T09:46:34;5.45;;;2.10;;
39956;SDS011;48483;44.640;7.494;2022-08-01T09:49:02;5.90;;;2.53;;
39956;SDS011;48483;44.640;7.494;2022-08-01T09:51:32;6.07;;;2.30;;
39956;SDS011;48483;44.640;7.494;2022-08-01T09:54:00;3.40;;;2.30;;
39956;SDS011;48483;44.640;7.494;2022-08-01T09:56:35;3.35;;;2.28;;
39956;SDS011;48483;44.640;7.494;2022-08-01T09:59:03;4.75;;;2.55;;
39956;SDS011;48483;44.640;7.494;2022-08-01T10:01:41;4.15;;;2.60;;
39956;SDS011;48483;44.640;7.494;2022-08-01T10:04:10;3.17;;;1.80;;
39956;SDS011;48483;44.640;7.494;2022-08-01T10:06:39;7.47;;;2.30;;
39956;SDS011;48483;44.640;7.494;2022-08-01T10:09:08;3.55;;;2.17;;
39956;SDS011;48483;44.640;7.494;2022-08-01T10:11:36;3.40;;;2.25;;
39956;SDS011;48483;44.640;7.494;2022-08-01T10:14:05;2.33;;;1.90;;
39956;SDS011;48483;44.640;7.494;2022-08-01T10:16:32;4.60;;;2.10;;
39956;SDS011;48483;44.640;7.494;2022-08-01T10:19:01;4.68;;;2.47;;
39956;SDS011;48483;44.640;7.494;2022-08-01T10:21:28;4.30;;;2.55;;
39956;SDS011;48483;44.640;7.494;2022-08-01T10:23:59;2.72;;;2.03;;
39956;SDS011;48483;44.640;7.494;2022-08-01T10:26:28;6.28;;;2.30;;
39956;SDS011;48483;44.640;7.494;2022-08-01T10:28:58;4.55;;;2.30;;
39956;SDS011;48483;44.640;7.494;2022-08-01T10:31:25;5.55;;;2.72;;
39956;SDS011;48483;44.640;7.494;2022-08-01T10:33:53;3.75;;;2.60;;
39956;SDS011;48483;44.640;7.494;2022-08-01T10:36:20;4.35;;;1.90;;
39956;SDS011;48483;44.640;7.494;2022-08-01T10:38:48;3.38;;;2.40;;
39956;SDS011;48483;44.640;7.494;2022-08-01T10:41:17;7.28;;;2.00;;
39956;SDS011;48483;44.640;7.494;2022-08-01T10:43:45;5.57;;;2.20;;
39956;SDS011;48483;44.640;7.494;2022-08-01T10:46:11;3.97;;;2.13;;
39956;SDS011;48483;44.640;7.494;2022-08-01T10:48:40;4.22;;;2.15;;
39956;SDS011;48483;44.640;7.494;2022-08-01T10:51:10;3.13;;;2.20;;
39956;SDS011;48483;44.640;7.494;2022-08-01T10:53:38;2.88;;;1.95;;
39956;SDS011;48483;44.640;7.494;2022-08-01T10:56:13;2.55;;;1.85;;
39956;SDS011;48483;44.640;7.494;2022-08-01T10:58:41;4.57;;;1.92;;
39956;SDS011;48483;44.640;7.494;2022-08-01T11:01:13;5.18;;;2.55;;
39956;SDS011;48483;44.640;7.494;2022-08-01T11:03:41;3.83;;;2.05;;
39956;SDS011;48483;44.640;7.494;2022-08-01T11:06:14;8.52;;;3.28;;
39956;SDS011;48483;44.640;7.494;2022-08-01T11:08:43;4.63;;;2.28;;
39956;SDS011;48483;44.640;7.494;2022-08-01T11:11:18;5.05;;;2.13;;
39956;SDS011;48483;44.640;7.494;2022-08-01T11:14:02;4.93;;;2.20;;
39956;SDS011;48483;44.640;7.494;2022-08-01T11:16:33;5.93;;;2.20;;
39956;SDS011;48483;44.640;7.494;2022-08-01T11:19:01;4.20;;;2.80;;
39956;SDS011;48483;44.640;7.494;2022-08-01T11:27:23;5.10;;;2.95;;
39956;SDS011;48483;44.640;7.494;2022-08-01T11:32:52;3.55;;;2.25;;
39956;SDS011;48483;44.640;7.494;2022-08-01T11:35:20;5.13;;;2.15;;
39956;SDS011;48483;44.640;7.494;2022-08-01T11:37:49;4.30;;;2.30;;
39956;SDS011;48483;44.640;7.494;2022-08-01T11:40:18;3.38;;;2.30;;
39956;SDS011;48483;44.640;7.494;2022-08-01T11:42:46;5.78;;;2.83;;
39956;SDS011;48483;44.640;7.494;2022-08-01T11:45:13;3.17;;;2.30;;
39956;SDS011;48483;44.640;7.494;2022-08-01T11:47:44;7.45;;;6.03;;
39956;SDS011;48483;44.640;7.494;2022-08-01T11:52:58;8.00;;;7.25;;
39956;SDS011;48483;44.640;7.494;2022-08-01T11:55:26;5.22;;;3.72;;
39956;SDS011;48483;44.640;7.494;2022-08-01T11:58:00;4.05;;;3.22;;
39956;SDS011;48483;44.640;7.494;2022-08-01T12:00:27;5.68;;;2.17;;
39956;SDS011;48483;44.640;7.494;2022-08-01T12:02:58;3.47;;;2.60;;
39956;SDS011;48483;44.640;7.494;2022-08-01T12:05:26;7.57;;;2.20;;
39956;SDS011;48483;44.640;7.494;2022-08-01T12:07:54;4.35;;;3.15;;
39956;SDS011;48483;44.640;7.494;2022-08-01T12:10:23;2.30;;;2.10;;
39956;SDS011;48483;44.640;7.494;2022-08-01T12:12:51;2.60;;;1.98;;
39956;SDS011;48483;44.640;7.494;2022-08-01T12:15:20;4.15;;;2.15;;
39956;SDS011;48483;44.640;7.494;2022-08-01T12:17:49;4.93;;;2.30;;
39956;SDS011;48483;44.640;7.494;2022-08-01T12:20:20;2.63;;;2.00;;
39956;SDS011;48483;44.640;7.494;2022-08-01T12:22:52;3.90;;;2.10;;
39956;SDS011;48483;44.640;7.494;2022-08-01T12:25:19;2.00;;;1.80;;
39956;SDS011;48483;44.640;7.494;2022-08-01T12:27:46;3.38;;;2.00;;
39956;SDS011;48483;44.640;7.494;2022-08-01T12:30:14;4.03;;;2.15;;
39956;SDS011;48483;44.640;7.494;2022-08-01T12:32:42;2.65;;;1.95;;
39956;SDS011;48483;44.640;7.494;2022-08-01T12:35:13;4.15;;;2.22;;
39956;SDS011;48483;44.640;7.494;2022-08-01T12:37:43;1.95;;;1.80;;
39956;SDS011;48483;44.640;7.494;2022-08-01T12:40:12;2.83;;;2.03;;
39956;SDS011;48483;44.640;7.494;2022-08-01T12:42:41;2.67;;;1.85;;
39956;SDS011;48483;44.640;7.494;2022-08-01T12:45:10;1.92;;;1.58;;
39956;SDS011;48483;44.640;7.494;2022-08-01T12:47:40;4.85;;;2.10;;
39956;SDS011;48483;44.640;7.494;2022-08-01T12:50:08;3.28;;;1.65;;
39956;SDS011;48483;44.640;7.494;2022-08-01T12:52:38;3.30;;;1.98;;
39956;SDS011;48483;44.640;7.494;2022-08-01T12:55:08;5.18;;;2.05;;
39956;SDS011;48483;44.640;7.494;2022-08-01T12:57:37;3.65;;;2.00;;
39956;SDS011;48483;44.640;7.494;2022-08-01T13:00:13;2.65;;;2.10;;
39956;SDS011;48483;44.640;7.494;2022-08-01T13:02:41;3.50;;;1.60;;
39956;SDS011;48483;44.640;7.494;2022-08-01T13:05:09;5.63;;;1.90;;
39956;SDS011;48483;44.640;7.494;2022-08-01T13:07:37;4.15;;;1.80;;
39956;SDS011;48483;44.640;7.494;2022-08-01T13:10:08;3.23;;;2.27;;
39956;SDS011;48483;44.640;7.494;2022-08-01T13:12:35;3.28;;;1.92;;
39956;SDS011;48483;44.640;7.494;2022-08-01T13:17:49;4.28;;;1.90;;
39956;SDS011;48483;44.640;7.494;2022-08-01T13:20:23;2.50;;;1.88;;
39956;SDS011;48483;44.640;7.494;2022-08-01T13:22:52;3.72;;;1.90;;
39956;SDS011;48483;44.640;7.494;2022-08-01T13:25:20;4.35;;;2.20;;
39956;SDS011;48483;44.640;7.494;2022-08-01T13:27:47;3.95;;;1.80;;
39956;SDS011;48483;44.640;7.494;2022-08-01T13:30:14;4.10;;;1.77;;
39956;SDS011;48483;44.640;7.494;2022-08-01T13:32:43;6.25;;;2.05;;
39956;SDS011;48483;44.640;7.494;2022-08-01T13:35:22;2.47;;;2.10;;
39956;SDS011;48483;44.640;7.494;2022-08-01T13:37:49;3.22;;;2.10;;
39956;SDS011;48483;44.640;7.494;2022-08-01T13:40:23;4.50;;;1.95;;
39956;SDS011;48483;44.640;7.494;2022-08-01T13:42:52;2.47;;;1.92;;
39956;SDS011;48483;44.640;7.494;2022-08-01T13:45:19;3.15;;;1.90;;
39956;SDS011;48483;44.640;7.494;2022-08-01T13:47:46;2.47;;;1.98;;
39956;SDS011;48483;44.640;7.494;2022-08-01T13:50:13;3.70;;;1.95;;
39956;SDS011;48483;44.640;7.494;2022-08-01T13:52:39;2.15;;;1.83;;
39956;SDS011;48483;44.640;7.494;2022-08-01T13:55:06;4.47;;;2.05;;
39956;SDS011;48483;44.640;7.494;2022-08-01T13:57:35;5.68;;;1.88;;
39956;SDS011;48483;44.640;7.494;2022-08-01T14:00:02;6.07;;;2.17;;
39956;SDS011;48483;44.640;7.494;2022-08-01T14:02:38;4.20;;;2.17;;
39956;SDS011;48483;44.640;7.494;2022-08-01T14:05:05;3.22;;;2.20;;
39956;SDS011;48483;44.640;7.494;2022-08-01T14:07:32;3.35;;;2.17;;
39956;SDS011;48483;44.640;7.494;2022-08-01T14:09:59;3.42;;;1.98;;
39956;SDS011;48483;44.640;7.494;2022-08-01T14:12:26;4.65;;;2.00;;
39956;SDS011;48483;44.640;7.494;2022-08-01T14:14:54;2.40;;;2.20;;
39956;SDS011;48483;44.640;7.494;2022-08-01T14:17:22;4.40;;;2.72;;
39956;SDS011;48483;44.640;7.494;2022-08-01T14:19:48;3.03;;;1.92;;
39956;SDS011;48483;44.640;7.494;2022-08-01T14:22:15;2.20;;;1.90;;
39956;SDS011;48483;44.640;7.494;2022-08-01T14:24:42;2.38;;;2.15;;
39956;SDS011;48483;44.640;7.494;2022-08-01T14:27:09;3.63;;;2.30;;
39956;SDS011;48483;44.640;7.494;2022-08-01T14:29:35;5.43;;;2.25;;
39956;SDS011;48483;44.640;7.494;2022-08-01T14:32:04;5.13;;;2.58;;
39956;SDS011;48483;44.640;7.494;2022-08-01T14:34:31;6.85;;;1.90;;
39956;SDS011;48483;44.640;7.494;2022-08-01T14:36:57;3.85;;;1.95;;
39956;SDS011;48483;44.640;7.494;2022-08-01T14:39:24;3.80;;;2.00;;
39956;SDS011;48483;44.640;7.494;2022-08-01T14:41:51;3.53;;;2.33;;
39956;SDS011;48483;44.640;7.494;2022-08-01T14:44:17;3.88;;;2.33;;
39956;SDS011;48483;44.640;7.494;2022-08-01T14:46:44;2.78;;;2.10;;
39956;SDS011;48483;44.640;7.494;2022-08-01T14:49:13;3.70;;;2.05;;
39956;SDS011;48483;44.640;7.494;2022-08-01T14:51:40;3.50;;;1.90;;
39956;SDS011;48483;44.640;7.494;2022-08-01T14:54:07;5.82;;;2.35;;
39956;SDS011;48483;44.640;7.494;2022-08-01T14:56:35;3.53;;;2.10;;
39956;SDS011;48483;44.640;7.494;2022-08-01T14:59:01;3.33;;;2.15;;
39956;SDS011;48483;44.640;7.494;2022-08-01T15:01:28;5.10;;;2.00;;
39956;SDS011;48483;44.640;7.494;2022-08-01T15:03:55;7.55;;;2.78;;
39956;SDS011;48483;44.640;7.494;2022-08-01T15:06:23;2.25;;;1.98;;
39956;SDS011;48483;44.640;7.494;2022-08-01T15:08:50;5.22;;;2.15;;
39956;SDS011;48483;44.640;7.494;2022-08-01T15:11:16;4.22;;;2.15;;